Time;durP1;ratioP1;P1;durP2;ratioP2;P2;SDS_P1;SDS_P2;PMS_P1;PMS_P2;Temp;Humidity;BMP_temperature;BMP_pressure;BME280_temperature;BME280_humidity;BME280_pressure;Samples;Min_cycle;Max_cycle;Signal;HPM_P1;HPM_P2
2021/07/16 00:01:37;;;;;;;;;;;;;;;-144.99;92.56;52256.50;5044700;28;20280;-56
2021/07/16 00:04:04;;;;;;;;;;;;;;;-144.99;92.89;52305.41;5045958;28;19929;-57
2021/07/16 00:06:31;;;;;;;;;;;;;;;-144.99;92.76;52313.56;5046810;28;19936;-57
2021/07/16 00:08:57;;;;;;;;;;;;;;;-144.99;92.64;52301.34;5044772;28;19925;-57
2021/07/16 00:11:25;;;;;;;;;;;;;;;-144.99;92.50;52329.88;5043032;28;20396;-57
2021/07/16 00:13:51;;;;;;;;;;;;;;;-144.99;92.44;52301.34;5043644;28;20049;-57
2021/07/16 00:16:17;;;;;;;;;;;;;;;-144.99;92.54;52276.88;5045175;28;19931;-56
2021/07/16 00:18:44;;;;;;;;;;;;;;;-144.99;92.57;52338.03;5043691;28;19931;-57
2021/07/16 00:21:10;;;;;;;;;;;;;;;-144.99;92.57;52297.25;5080346;22;19924;-60
2021/07/16 00:23:38;;;;;;;;;;;;;;;-144.99;92.87;52311.53;5079434;28;19978;-60
2021/07/16 00:26:04;;;;;;;;;;;;;;;-144.99;92.74;52309.50;5079050;28;19930;-60
2021/07/16 00:28:32;;;;;;;;;;;;;;;-144.99;93.07;52325.81;5078975;28;19931;-59
2021/07/16 00:30:58;;;;;;;;;;;;;;;-144.99;93.42;52333.94;5082799;28;19932;-61
2021/07/16 00:33:25;;;;;;;;;;;;;;;-144.99;93.87;52301.34;5081401;28;19928;-61
2021/07/16 00:35:51;;;;;;;;;;;;;;;-144.99;93.95;52344.16;5084153;28;20053;-61
2021/07/16 00:38:18;;;;;;;;;;;;;;;-144.99;93.67;52297.25;5081395;28;19924;-61
2021/07/16 00:40:44;;;;;;;;;;;;;;;-144.99;93.85;52327.84;5082323;28;20400;-61
2021/07/16 00:43:10;;;;;;;;;;;;;;;-144.99;93.92;52329.88;5082759;28;19924;-61
2021/07/16 00:45:38;;;;;;;;;;;;;;;-144.99;93.98;52305.41;5083227;28;20361;-60
2021/07/16 00:48:05;;;;;;;;;;;;;;;-144.99;93.89;52309.50;5079809;28;19936;-60
2021/07/16 00:50:33;;;;;;;;;;;;;;;-144.99;93.74;52317.66;5083487;28;20368;-60
2021/07/16 00:53:00;;;;;;;;;;;;;;;-144.99;93.66;52329.88;5084993;28;19928;-60
2021/07/16 00:55:27;;;;;;;;;;;;;;;-144.99;93.64;52333.94;5081612;28;19924;-60
2021/07/16 00:57:54;;;;;;;;;;;;;;;-144.99;93.19;52276.88;5084361;28;19928;-60
2021/07/16 01:00:20;;;;;;;;;;;;;;;-144.99;93.32;52327.84;5080435;28;19931;-60
2021/07/16 01:02:48;;;;;;;;;;;;;;;-144.99;93.44;52305.41;5077351;28;19924;-60
2021/07/16 01:05:16;;;;;;;;;;;;;;;-144.99;93.34;52325.81;5082551;28;19931;-60
2021/07/16 01:07:43;;;;;;;;;;;;;;;-144.99;93.10;52285.03;5080527;28;19925;-61
2021/07/16 01:10:11;;;;;;;;;;;;;;;-144.99;93.55;52293.19;5081755;28;20337;-62
2021/07/16 01:12:38;;;;;;;;;;;;;;;-144.99;93.53;52350.25;5076553;28;20181;-62
2021/07/16 01:15:05;;;;;;;;;;;;;;;-144.99;93.66;52301.34;5084226;28;19931;-62
2021/07/16 01:17:32;;;;;;;;;;;;;;;-144.99;93.63;52329.88;5081953;28;19924;-63
2021/07/16 01:20:01;;;;;;;;;;;;;;;-144.99;93.47;52348.22;5082670;28;19983;-64
2021/07/16 01:22:28;;;;;;;;;;;;;;;-144.99;93.60;52321.72;5079491;28;19974;-63
2021/07/16 01:24:56;;;;;;;;;;;;;;;-144.99;93.32;52321.72;5083903;28;20023;-64
2021/07/16 01:27:23;;;;;;;;;;;;;;;-144.99;93.54;52307.47;5080973;28;20374;-62
2021/07/16 01:29:49;;;;;;;;;;;;;;;-144.99;93.68;52352.28;5080679;28;20293;-63
2021/07/16 01:32:16;;;;;;;;;;;;;;;-144.99;93.60;52325.81;5085304;28;19925;-64
2021/07/16 01:34:43;;;;;;;;;;;;;;;-144.99;93.85;52313.56;5085212;28;19928;-64
2021/07/16 01:37:10;;;;;;;;;;;;;;;-144.99;93.57;52317.66;5083119;28;20353;-59
2021/07/16 01:39:36;;;;;;;;;;;;;;;-144.99;93.46;52333.94;5088131;28;19924;-59
2021/07/16 01:42:05;;;;;;;;;;;;;;;-144.99;93.49;52333.94;5084412;28;19955;-59
2021/07/16 01:44:31;;;;;;;;;;;;;;;-144.99;93.31;52329.88;5080554;28;19939;-59
2021/07/16 01:46:58;;;;;;;;;;;;;;;-144.99;93.34;52309.50;5086161;28;20274;-59
2021/07/16 01:49:25;;;;;;;;;;;;;;;-144.99;93.48;52317.66;5081672;28;19928;-61
2021/07/16 01:51:51;;;;;;;;;;;;;;;-144.99;93.75;52333.94;5083621;28;20381;-61
2021/07/16 01:54:17;;;;;;;;;;;;;;;-144.99;93.63;52342.09;5085487;28;19924;-61
2021/07/16 01:56:44;;;;;;;;;;;;;;;-144.99;93.90;52327.84;5085568;28;19932;-61
2021/07/16 01:59:12;;;;;;;;;;;;;;;-144.99;94.22;52301.34;5086275;28;19924;-62
2021/07/16 02:01:38;;;;;;;;;;;;;;;-144.99;94.20;52336.00;5084090;28;19931;-61
2021/07/16 02:04:05;;;;;;;;;;;;;;;-144.99;94.48;52333.94;5084742;28;19931;-62
2021/07/16 02:06:31;;;;;;;;;;;;;;;-144.99;94.55;52354.34;5086073;28;19931;-62
2021/07/16 02:08:57;;;;;;;;;;;;;;;-144.99;94.50;52378.78;5087062;28;19924;-62
2021/07/16 02:11:24;;;;;;;;;;;;;;;-144.99;94.57;52305.41;5084564;28;19935;-62
2021/07/16 02:13:50;;;;;;;;;;;;;;;-144.99;94.37;52319.69;5080206;28;19924;-62
2021/07/16 02:16:18;;;;;;;;;;;;;;;-144.99;93.99;52350.25;5085514;28;19959;-59
2021/07/16 02:18:47;;;;;;;;;;;;;;;-144.99;94.45;52305.41;5080786;28;19955;-59
2021/07/16 02:21:14;;;;;;;;;;;;;;;-144.99;94.54;52317.66;5084267;28;19935;-59
2021/07/16 02:23:40;;;;;;;;;;;;;;;-144.99;94.75;52317.66;5084893;28;20365;-59
2021/07/16 02:26:06;;;;;;;;;;;;;;;-144.99;95.03;52354.34;5080744;28;19954;-59
2021/07/16 02:28:33;;;;;;;;;;;;;;;-144.99;95.13;52338.03;5080040;28;20405;-61
2021/07/16 02:31:00;;;;;;;;;;;;;;;-144.99;94.99;52342.09;5081631;28;19931;-61
2021/07/16 02:33:28;;;;;;;;;;;;;;;-144.99;95.20;52356.38;5081537;28;19935;-61
2021/07/16 02:35:54;;;;;;;;;;;;;;;-144.99;95.55;52342.09;5083233;28;19936;-60
2021/07/16 02:38:22;;;;;;;;;;;;;;;-144.99;95.48;52317.66;5086348;28;19924;-60
2021/07/16 02:40:48;;;;;;;;;;;;;;;-144.99;95.38;52297.25;5082852;28;20016;-60
2021/07/16 02:43:15;;;;;;;;;;;;;;;-144.99;95.62;52356.38;5082189;28;19924;-60
2021/07/16 02:45:42;;;;;;;;;;;;;;;-144.99;95.43;52301.34;5085831;28;19932;-61
2021/07/16 02:48:08;;;;;;;;;;;;;;;-144.99;95.56;52325.81;5087700;28;19931;-60
2021/07/16 02:50:37;;;;;;;;;;;;;;;-144.99;95.46;52313.56;5086636;28;19935;-59
2021/07/16 02:53:04;;;;;;;;;;;;;;;-144.99;95.55;52331.91;5085570;28;19924;-58
2021/07/16 02:55:30;;;;;;;;;;;;;;;-144.99;95.52;52317.66;5082578;28;20339;-59
2021/07/16 02:57:56;;;;;;;;;;;;;;;-144.99;95.51;52313.56;5084391;28;19992;-59
2021/07/16 03:00:24;;;;;;;;;;;;;;;-144.99;95.46;52305.41;5084440;28;20299;-58
2021/07/16 03:02:51;;;;;;;;;;;;;;;-144.99;95.30;52354.34;5083271;28;19932;-59
2021/07/16 03:05:18;;;;;;;;;;;;;;;-144.99;95.70;52309.50;5080925;28;19931;-58
2021/07/16 03:07:46;;;;;;;;;;;;;;;-144.99;95.84;52325.81;5080715;28;19932;-59
2021/07/16 03:10:16;;;;;;;;;;;;;;;-144.99;96.23;52311.53;5084954;28;19947;-59
2021/07/16 03:12:42;;;;;;;;;;;;;;;-144.99;96.16;52338.03;5081895;28;19928;-59
2021/07/16 03:15:10;;;;;;;;;;;;;;;-144.99;96.08;52338.03;5083875;28;19924;-59
2021/07/16 03:17:38;;;;;;;;;;;;;;;-144.99;96.14;52366.56;5082709;28;19930;-59
2021/07/16 03:20:05;;;;;;;;;;;;;;;-144.99;95.90;52356.38;5084879;28;19924;-59
2021/07/16 03:22:32;;;;;;;;;;;;;;;-144.99;96.04;52354.34;5084652;28;20389;-59
2021/07/16 03:24:59;;;;;;;;;;;;;;;-144.99;95.98;52321.72;5081318;28;19936;-59
2021/07/16 03:27:26;;;;;;;;;;;;;;;-144.99;96.06;52323.75;5081815;28;19930;-59
2021/07/16 03:29:52;;;;;;;;;;;;;;;-144.99;96.30;52342.09;5081103;28;19943;-59
2021/07/16 03:32:18;;;;;;;;;;;;;;;-144.99;96.33;52354.34;5085815;28;19936;-59
2021/07/16 03:34:45;;;;;;;;;;;;;;;-144.99;96.07;52319.69;5086343;28;19924;-60
2021/07/16 03:37:14;;;;;;;;;;;;;;;-144.99;96.16;52338.03;5082589;28;19928;-60
2021/07/16 03:39:41;;;;;;;;;;;;;;;-144.99;96.43;52336.00;5080375;28;19931;-59
2021/07/16 03:42:09;;;;;;;;;;;;;;;-144.99;96.67;52333.94;5083570;28;20150;-60
2021/07/16 03:44:35;;;;;;;;;;;;;;;-144.99;96.61;52305.41;5082220;28;19951;-59
2021/07/16 03:47:01;;;;;;;;;;;;;;;-144.99;96.50;52305.41;5086034;28;20051;-59
2021/07/16 03:49:28;;;;;;;;;;;;;;;-144.99;96.12;52321.72;5081860;28;19933;-60
2021/07/16 03:51:55;;;;;;;;;;;;;;;-144.99;95.98;52336.00;5082939;28;20370;-61
2021/07/16 03:54:21;;;;;;;;;;;;;;;-144.99;96.01;52350.25;5082750;28;19928;-60
2021/07/16 03:56:48;;;;;;;;;;;;;;;-144.99;96.15;52344.16;5084168;28;19924;-60
2021/07/16 03:59:16;;;;;;;;;;;;;;;-144.99;95.95;52329.88;5082174;28;19927;-58
2021/07/16 04:01:43;;;;;;;;;;;;;;;-144.99;95.47;52276.88;5077420;28;19947;-58
2021/07/16 04:04:09;;;;;;;;;;;;;;;-144.99;95.30;52309.50;5088012;28;20157;-59
2021/07/16 04:06:36;;;;;;;;;;;;;;;-144.99;94.97;52309.50;5079752;28;19925;-59
2021/07/16 04:09:26;;;;;;;;;;;;;;;-144.99;94.88;52301.34;5083363;28;20020;-60
2021/07/16 04:11:52;;;;;;;;;;;;;;;-144.99;94.99;52299.31;5081504;28;20373;-60
2021/07/16 04:14:21;;;;;;;;;;;;;;;-144.99;95.04;52313.56;5083367;28;19924;-60
2021/07/16 04:16:48;;;;;;;;;;;;;;;-144.99;94.90;52301.34;5083959;28;19928;-60
2021/07/16 04:19:14;;;;;;;;;;;;;;;-144.99;95.40;52325.81;5082126;28;19928;-60
2021/07/16 04:21:40;;;;;;;;;;;;;;;-144.99;95.20;52319.69;5083454;28;20413;-63
2021/07/16 04:24:07;;;;;;;;;;;;;;;-144.99;95.54;52305.41;5084603;28;19943;-63
2021/07/16 04:26:33;;;;;;;;;;;;;;;-144.99;95.51;52329.88;5082129;28;19939;-64
2021/07/16 04:29:00;;;;;;;;;;;;;;;-144.99;95.43;52297.25;5085185;28;19924;-63
2021/07/16 04:31:27;;;;;;;;;;;;;;;-144.99;95.28;52289.13;5084130;28;19957;-63
2021/07/16 04:33:54;;;;;;;;;;;;;;;-144.99;95.27;52338.03;5081536;28;19928;-60
2021/07/16 04:36:20;;;;;;;;;;;;;;;-144.99;95.46;52329.88;5083872;28;20361;-60
2021/07/16 04:38:46;;;;;;;;;;;;;;;-144.99;95.60;52338.03;5082622;28;19924;-60
2021/07/16 04:41:13;;;;;;;;;;;;;;;-144.99;95.57;52313.56;5085601;28;19928;-59
2021/07/16 04:43:39;;;;;;;;;;;;;;;-144.99;95.37;52321.72;5081883;28;19924;-58
2021/07/16 04:46:05;;;;;;;;;;;;;;;-144.99;95.08;52309.50;5083442;28;19931;-59
2021/07/16 04:48:33;;;;;;;;;;;;;;;-144.99;94.99;52276.88;5078186;28;19938;-59
2021/07/16 04:51:00;;;;;;;;;;;;;;;-144.99;94.76;52325.81;5084592;28;19931;-62
2021/07/16 04:53:26;;;;;;;;;;;;;;;-144.99;94.55;52319.69;5081843;28;19932;-61
2021/07/16 04:55:52;;;;;;;;;;;;;;;-144.99;94.29;52285.03;5084278;28;19931;-62
2021/07/16 04:58:19;;;;;;;;;;;;;;;-144.99;93.89;52329.88;5082879;28;19932;-62
2021/07/16 05:00:45;;;;;;;;;;;;;;;-144.99;93.86;52303.38;5078389;28;19928;-62
2021/07/16 05:03:11;;;;;;;;;;;;;;;-144.99;93.75;52317.66;5082129;28;19936;-62
2021/07/16 05:05:39;;;;;;;;;;;;;;;-144.99;93.46;52287.06;5082248;28;20006;-62
2021/07/16 05:08:05;;;;;;;;;;;;;;;-144.99;93.33;52305.41;5085852;28;19924;-62
2021/07/16 05:10:32;;;;;;;;;;;;;;;-144.99;93.04;52291.16;5085937;28;19955;-62
2021/07/16 05:12:59;;;;;;;;;;;;;;;-144.99;92.98;52309.50;5084618;28;19958;-61
2021/07/16 05:15:25;;;;;;;;;;;;;;;-144.99;92.54;52287.06;5084477;28;19935;-63
2021/07/16 05:17:51;;;;;;;;;;;;;;;-144.99;92.59;52289.13;5084615;28;19932;-62
2021/07/16 05:20:18;;;;;;;;;;;;;;;-144.99;92.36;52268.72;5088457;28;19930;-62
2021/07/16 05:22:45;;;;;;;;;;;;;;;-144.99;92.00;52299.31;5084996;28;19932;-60
2021/07/16 05:25:12;;;;;;;;;;;;;;;-144.99;91.95;52301.34;5084645;28;20308;-60
2021/07/16 05:27:39;;;;;;;;;;;;;;;-144.99;91.77;52293.19;5087834;28;19924;-60
2021/07/16 05:30:06;;;;;;;;;;;;;;;-144.99;91.40;52293.19;5085788;28;19931;-60
2021/07/16 05:32:33;;;;;;;;;;;;;;;-144.99;91.12;52305.41;5084541;28;20436;-62
2021/07/16 05:34:59;;;;;;;;;;;;;;;-144.99;90.74;52311.53;5084852;28;20290;-59
2021/07/16 05:37:25;;;;;;;;;;;;;;;-144.99;90.21;52256.50;5085424;28;20285;-59
2021/07/16 05:39:53;;;;;;;;;;;;;;;-144.99;89.72;52272.81;5083680;28;19932;-59
2021/07/16 05:42:20;;;;;;;;;;;;;;;-144.99;89.15;52264.66;5082242;28;19935;-61
2021/07/16 05:44:46;;;;;;;;;;;;;;;-144.99;88.44;52276.88;5087083;28;19928;-61
2021/07/16 05:47:12;;;;;;;;;;;;;;;-144.99;88.13;52268.72;5081970;28;19947;-61
2021/07/16 05:49:39;;;;;;;;;;;;;;;-144.99;87.54;52278.91;5084138;28;20297;-61
2021/07/16 05:52:05;;;;;;;;;;;;;;;-144.99;87.42;52285.03;5083138;28;20005;-60
2021/07/16 05:54:32;;;;;;;;;;;;;;;-144.99;87.26;52252.44;5083624;28;20243;-60
2021/07/16 05:56:59;;;;;;;;;;;;;;;-144.99;87.04;52230.00;5084235;28;19932;-61
2021/07/16 05:59:26;;;;;;;;;;;;;;;-144.99;86.07;52260.56;5085633;28;19928;-61
2021/07/16 06:01:52;;;;;;;;;;;;;;;-144.99;86.02;52227.97;5085659;28;19931;-60
2021/07/16 06:04:18;;;;;;;;;;;;;;;-144.99;85.43;52264.66;5088066;28;19928;-60
2021/07/16 06:06:47;;;;;;;;;;;;;;;-144.99;85.00;52240.19;5090813;28;19933;-61
2021/07/16 06:09:13;;;;;;;;;;;;;;;-144.99;84.58;52227.97;5088068;28;19932;-60
2021/07/16 06:11:40;;;;;;;;;;;;;;;-144.99;84.08;52244.28;5085403;28;19931;-61
2021/07/16 06:14:08;;;;;;;;;;;;;;;-144.99;83.88;52266.69;5081859;28;19931;-61
2021/07/16 06:16:34;;;;;;;;;;;;;;;-144.99;83.75;52252.44;5088893;28;20397;-60
2021/07/16 06:19:00;;;;;;;;;;;;;;;-144.99;82.30;52295.22;5081101;28;19931;-60
2021/07/16 06:21:27;;;;;;;;;;;;;;;-144.99;82.50;52260.56;5084433;28;19934;-60
2021/07/16 06:23:53;;;;;;;;;;;;;;;-144.99;82.90;52252.44;5086303;28;19924;-60
2021/07/16 06:26:19;;;;;;;;;;;;;;;-144.99;82.74;52272.81;5082894;28;19935;-60
2021/07/16 06:28:46;;;;;;;;;;;;;;;-144.99;82.44;52215.75;5082269;28;19939;-60
2021/07/16 06:31:13;;;;;;;;;;;;;;;-144.99;81.93;52252.44;5079559;28;19932;-60
2021/07/16 06:33:40;;;;;;;;;;;;;;;-144.99;81.73;52260.56;5083010;28;20392;-59
2021/07/16 06:36:06;;;;;;;;;;;;;;;-144.99;81.63;52240.19;5083245;28;19931;-61
2021/07/16 06:38:32;;;;;;;;;;;;;;;-144.99;81.45;52266.69;5081163;28;20390;-58
2021/07/16 06:41:00;;;;;;;;;;;;;;;-144.99;81.31;52230.00;5081708;28;19936;-59
2021/07/16 06:43:27;;;;;;;;;;;;;;;-144.99;81.37;52234.09;5084305;28;19935;-60
2021/07/16 06:45:53;;;;;;;;;;;;;;;-144.99;81.37;52246.31;5085337;28;19929;-59
2021/07/16 06:48:21;;;;;;;;;;;;;;;-144.99;80.80;52268.72;5082868;28;19924;-59
2021/07/16 06:50:47;;;;;;;;;;;;;;;-144.99;80.07;52240.19;5084071;28;19924;-59
2021/07/16 06:53:13;;;;;;;;;;;;;;;-144.99;79.08;52242.22;5084739;28;19988;-63
2021/07/16 06:55:40;;;;;;;;;;;;;;;-144.99;78.76;52205.53;5083963;28;19924;-62
2021/07/16 06:58:06;;;;;;;;;;;;;;;-144.99;78.63;52223.88;5085191;28;19928;-62
2021/07/16 07:00:34;;;;;;;;;;;;;;;-144.99;78.63;52215.75;5081023;28;19936;-62
2021/07/16 07:03:01;;;;;;;;;;;;;;;-144.99;77.76;52223.88;5100380;22;20301;-58
2021/07/16 07:05:28;;;;;;;;;;;;;;;-144.99;78.06;52223.88;5076808;28;19955;-57
2021/07/16 07:07:55;;;;;;;;;;;;;;;-144.99;77.10;52276.88;5079568;28;20377;-57
2021/07/16 07:10:21;;;;;;;;;;;;;;;-144.99;77.65;52248.34;5075183;28;19994;-57
2021/07/16 07:12:48;;;;;;;;;;;;;;;-144.99;77.25;52230.00;5068773;28;20362;-57
2021/07/16 07:15:15;;;;;;;;;;;;;;;-144.99;77.21;52236.13;5078041;28;20032;-56
2021/07/16 07:17:42;;;;;;;;;;;;;;;-144.99;77.21;52232.03;5066067;28;20378;-56
2021/07/16 07:20:09;;;;;;;;;;;;;;;-144.99;77.05;52264.66;5076749;28;19924;-56
2021/07/16 07:22:37;;;;;;;;;;;;;;;-144.99;76.94;52252.44;5072039;28;20291;-56
2021/07/16 07:25:04;;;;;;;;;;;;;;;-144.99;76.57;52219.81;5077584;28;19932;-56
2021/07/16 07:27:32;;;;;;;;;;;;;;;-144.99;76.55;52215.75;5075552;28;19924;-56
2021/07/16 07:29:58;;;;;;;;;;;;;;;-144.99;76.00;52215.75;5074304;28;19924;-56
2021/07/16 07:32:25;;;;;;;;;;;;;;;-144.99;75.65;52223.88;5071009;28;19940;-59
2021/07/16 07:34:51;;;;;;;;;;;;;;;-144.99;74.60;52219.81;5077164;28;19932;-64
2021/07/16 07:37:17;;;;;;;;;;;;;;;-144.99;73.80;52201.47;5075926;28;20271;-63
2021/07/16 07:39:45;;;;;;;;;;;;;;;-144.99;73.08;52232.03;5080566;28;20389;-63
2021/07/16 07:42:15;;;;;;;;;;;;;;;-144.99;72.83;52203.50;5073797;28;19939;-64
2021/07/16 07:44:41;;;;;;;;;;;;;;;-144.99;72.20;52203.50;5073451;28;19924;-63
2021/07/16 07:47:08;;;;;;;;;;;;;;;-144.99;71.50;52211.66;5072913;28;19932;-63
2021/07/16 07:49:35;;;;;;;;;;;;;;;-144.99;70.37;52195.34;5074559;28;20007;-63
2021/07/16 07:52:01;;;;;;;;;;;;;;;-144.99;69.23;52191.28;5078914;28;19946;-60
2021/07/16 07:54:28;;;;;;;;;;;;;;;-144.99;68.39;52179.06;5070173;28;19930;-59
2021/07/16 07:56:55;;;;;;;;;;;;;;;-144.99;67.93;52215.75;5080581;28;20012;-58
2021/07/16 07:59:22;;;;;;;;;;;;;;;-144.99;67.37;52158.66;5075286;28;19946;-60
2021/07/16 08:01:49;;;;;;;;;;;;;;;-144.99;67.16;52179.06;5077626;28;19936;-60
2021/07/16 08:04:15;;;;;;;;;;;;;;;-144.99;66.18;52219.81;5073784;28;19932;-60
2021/07/16 08:06:42;;;;;;;;;;;;;;;-144.99;66.02;52179.06;5068524;28;21117;-59
2021/07/16 08:09:08;;;;;;;;;;;;;;;-144.99;66.77;52187.19;5069385;28;19924;-58
2021/07/16 08:11:35;;;;;;;;;;;;;;;-144.99;66.79;52158.66;5068926;28;20446;-59
2021/07/16 08:14:03;;;;;;;;;;;;;;;-144.99;66.36;52177.00;5068100;28;19928;-59
2021/07/16 08:16:29;;;;;;;;;;;;;;;-144.99;66.43;52213.69;5075515;28;19943;-60
2021/07/16 08:18:56;;;;;;;;;;;;;;;-144.99;66.95;52211.66;5075940;28;19932;-58
2021/07/16 08:21:23;;;;;;;;;;;;;;;-144.99;66.95;52170.91;5079950;28;20052;-59
2021/07/16 08:23:49;;;;;;;;;;;;;;;-144.99;67.25;52195.34;5075219;28;19928;-58
2021/07/16 08:26:18;;;;;;;;;;;;;;;-144.99;67.36;52209.63;5075032;28;19930;-58
2021/07/16 08:28:44;;;;;;;;;;;;;;;-144.99;66.59;52179.06;5073809;28;20369;-59
2021/07/16 08:31:12;;;;;;;;;;;;;;;-144.99;65.39;52166.81;5077480;28;20378;-58
2021/07/16 08:33:39;;;;;;;;;;;;;;;-144.99;64.87;52199.44;5080924;28;19931;-58
2021/07/16 08:36:05;;;;;;;;;;;;;;;-144.99;65.32;52166.81;5076259;28;20365;-57
2021/07/16 08:38:32;;;;;;;;;;;;;;;-144.99;65.34;52179.06;5079590;28;20425;-57
2021/07/16 08:40:58;;;;;;;;;;;;;;;-144.99;65.42;52203.50;5078361;28;19929;-59
2021/07/16 08:43:27;;;;;;;;;;;;;;;-144.99;64.55;52211.66;5075218;28;19964;-59
2021/07/16 08:45:53;;;;;;;;;;;;;;;-144.99;65.52;52158.66;5076001;28;19924;-58
2021/07/16 08:48:21;;;;;;;;;;;;;;;-144.99;65.19;52158.66;5076865;28;20266;-59
2021/07/16 08:50:48;;;;;;;;;;;;;;;-144.99;64.73;52203.50;5081552;28;19924;-54
2021/07/16 08:53:14;;;;;;;;;;;;;;;-144.99;64.62;52166.81;5073634;28;20416;-61
2021/07/16 08:55:42;;;;;;;;;;;;;;;-144.99;64.50;52154.59;5068839;28;20008;-61
2021/07/16 08:58:10;;;;;;;;;;;;;;;-144.99;64.91;52183.13;5067857;28;20336;-60
2021/07/16 09:00:37;;;;;;;;;;;;;;;-144.99;64.26;52172.94;5066353;28;19924;-60
2021/07/16 09:03:05;;;;;;;;;;;;;;;-144.99;64.37;52174.97;5067983;28;19924;-61
2021/07/16 09:05:33;;;;;;;;;;;;;;;-144.99;64.65;52162.75;5069567;28;19925;-60
2021/07/16 09:08:00;;;;;;;;;;;;;;;-144.99;63.31;52162.75;5068974;28;20691;-60
2021/07/16 09:10:27;;;;;;;;;;;;;;;-144.99;62.23;52179.06;5068862;28;19928;-60
2021/07/16 09:12:57;;;;;;;;;;;;;;;-144.99;62.40;52121.97;5069004;28;19924;-62
2021/07/16 09:15:23;;;;;;;;;;;;;;;-144.99;61.61;52166.81;5066005;28;19956;-60
2021/07/16 09:17:53;;;;;;;;;;;;;;;-144.99;60.54;52146.44;5075887;28;19924;-60
2021/07/16 09:20:23;;;;;;;;;;;;;;;-144.99;60.48;52121.97;5072779;28;19925;-60
2021/07/16 09:23:04;;;;;;;;;;;;;;;-144.99;60.75;52191.28;5077051;28;20398;-60
2021/07/16 09:25:32;;;;;;;;;;;;;;;-144.99;61.22;52138.28;5074868;28;19925;-60
2021/07/16 09:27:58;;;;;;;;;;;;;;;-144.99;61.88;52150.53;5075829;28;20485;-60
2021/07/16 09:30:27;;;;;;;;;;;;;;;-144.99;60.96;52168.84;5074642;28;19932;-60
2021/07/16 09:32:54;;;;;;;;;;;;;;;-144.99;60.32;52126.06;5070976;28;20028;-60
2021/07/16 09:35:24;;;;;;;;;;;;;;;-144.99;59.46;52126.06;5073004;28;19931;-63
2021/07/16 09:37:52;;;;;;;;;;;;;;;-144.99;58.90;52138.28;5069767;28;20178;-63
2021/07/16 09:40:25;;;;;;;;;;;;;;;-144.99;57.30;52158.66;5069157;28;20033;-63
2021/07/16 09:43:13;;;;;;;;;;;;;;;-144.99;57.00;52138.28;5069881;28;19935;-61
2021/07/16 09:45:41;;;;;;;;;;;;;;;-144.99;58.14;52146.44;5065143;28;19925;-61
2021/07/16 09:48:17;;;;;;;;;;;;;;;-144.99;57.83;52134.22;5067466;28;20016;-60
2021/07/16 09:50:44;;;;;;;;;;;;;;;-144.99;57.51;52130.13;5061801;28;19979;-60
2021/07/16 09:53:14;;;;;;;;;;;;;;;-144.99;57.76;52113.84;5069330;28;20282;-61
2021/07/16 09:55:42;;;;;;;;;;;;;;;-144.99;56.77;52130.13;5069455;28;20298;-60
2021/07/16 09:58:22;;;;;;;;;;;;;;;-144.99;57.51;52099.56;5071848;28;19977;-60
2021/07/16 10:00:51;;;;;;;;;;;;;;;-144.99;57.21;52117.91;5068151;28;20382;-60
2021/07/16 10:03:19;;;;;;;;;;;;;;;-144.99;56.85;52097.53;5072100;28;20407;-60
2021/07/16 10:05:47;;;;;;;;;;;;;;;-144.99;57.14;52077.16;5072577;28;19928;-59
2021/07/16 10:08:13;;;;;;;;;;;;;;;-144.99;57.21;52134.22;5072546;28;20362;-60
2021/07/16 10:10:39;;;;;;;;;;;;;;;-144.99;56.63;52095.50;5072218;28;20018;-59
2021/07/16 10:13:08;;;;;;;;;;;;;;;-144.99;55.31;52087.34;5072690;28;19924;-60
2021/07/16 10:15:35;;;;;;;;;;;;;;;-144.99;56.18;52089.38;5071993;28;20406;-59
2021/07/16 10:18:05;;;;;;;;;;;;;;;-144.99;56.99;52119.94;5080582;28;20015;-59
2021/07/16 10:20:35;;;;;;;;;;;;;;;-144.99;57.33;52060.84;5082749;28;19924;-59
2021/07/16 10:23:02;;;;;;;;;;;;;;;-144.99;56.51;52083.25;5065603;28;20309;-60
2021/07/16 10:25:28;;;;;;;;;;;;;;;-144.99;56.88;52099.56;5069192;28;19928;-58
2021/07/16 10:27:55;;;;;;;;;;;;;;;-144.99;57.22;52097.53;5072854;28;19931;-61
2021/07/16 10:30:22;;;;;;;;;;;;;;;-144.99;56.97;52109.75;5071431;28;19924;-59
2021/07/16 10:32:49;;;;;;;;;;;;;;;-144.99;56.56;52077.16;5072184;28;19932;-59
2021/07/16 10:35:21;;;;;;;;;;;;;;;-144.99;56.09;52081.22;5071552;28;20371;-59
2021/07/16 10:37:48;;;;;;;;;;;;;;;-144.99;56.57;52058.81;5072941;28;19924;-60
2021/07/16 10:40:33;;;;;;;;;;;;;;;-144.99;56.70;52085.31;5072604;28;19935;-59
2021/07/16 10:43:00;;;;;;;;;;;;;;;-144.99;55.35;52052.69;5073239;28;19948;-59
2021/07/16 10:45:34;;;;;;;;;;;;;;;-144.99;54.27;52073.06;5071728;28;20158;-59
2021/07/16 10:48:11;;;;;;;;;;;;;;;-144.99;54.50;52038.44;5076193;28;19925;-59
2021/07/16 10:50:40;;;;;;;;;;;;;;;-144.99;54.15;52066.97;5062961;28;20403;-59
2021/07/16 10:53:08;;;;;;;;;;;;;;;-144.99;53.61;52040.47;5071220;28;19928;-59
2021/07/16 10:55:53;;;;;;;;;;;;;;;-144.99;52.46;51997.66;5071946;28;20336;-58
2021/07/16 10:58:20;;;;;;;;;;;;;;;-144.99;53.71;52064.91;5061728;28;19931;-60
2021/07/16 11:00:51;;;;;;;;;;;;;;;-144.99;52.13;52040.47;5071259;28;20015;-59
2021/07/16 11:03:18;;;;;;;;;;;;;;;-144.99;51.69;52001.75;5071066;28;19967;-58
2021/07/16 11:05:52;;;;;;;;;;;;;;;-144.99;51.11;51995.63;5070933;28;19931;-59
2021/07/16 11:08:29;;;;;;;;;;;;;;;-144.99;50.29;52044.53;5077195;28;19924;-60
2021/07/16 11:11:00;;;;;;;;;;;;;;;-144.99;49.45;51983.41;5073389;28;19931;-60
2021/07/16 11:13:31;;;;;;;;;;;;;;;-144.99;50.40;52003.78;5071314;28;19961;-60
2021/07/16 11:15:57;;;;;;;;;;;;;;;-144.99;50.49;51979.31;5070900;28;19924;-60
2021/07/16 11:18:26;;;;;;;;;;;;;;;-144.99;50.02;52016.00;5074792;28;20011;-60
2021/07/16 11:20:54;;;;;;;;;;;;;;;-144.99;49.76;51999.69;5052392;28;19925;-60
2021/07/16 11:23:21;;;;;;;;;;;;;;;-144.99;49.34;51977.28;5064826;28;19924;-60
2021/07/16 11:25:47;;;;;;;;;;;;;;;-144.99;49.41;51991.56;5071937;28;19931;-60
2021/07/16 11:28:14;;;;;;;;;;;;;;;-144.99;49.46;52003.78;5070372;28;20051;-60
2021/07/16 11:30:42;;;;;;;;;;;;;;;-144.99;49.34;51979.31;5078307;28;19925;-60
2021/07/16 11:33:09;;;;;;;;;;;;;;;-144.99;50.14;52032.31;5070633;28;20003;-60
2021/07/16 11:35:36;;;;;;;;;;;;;;;-144.99;51.10;52044.53;5071041;28;19924;-60
2021/07/16 11:38:08;;;;;;;;;;;;;;;-144.99;52.01;52042.50;5071307;28;19924;-60
2021/07/16 11:40:36;;;;;;;;;;;;;;;-144.99;53.19;52032.31;5077063;28;19982;-59
2021/07/16 11:43:04;;;;;;;;;;;;;;;-144.99;51.77;52038.44;5070757;28;20437;-59
2021/07/16 11:45:32;;;;;;;;;;;;;;;-144.99;51.19;52064.91;5071191;28;19925;-59
2021/07/16 11:47:59;;;;;;;;;;;;;;;-144.99;51.76;52020.09;5070419;28;19947;-59
2021/07/16 11:50:26;;;;;;;;;;;;;;;-144.99;51.86;51983.41;5072134;28;20213;-59
2021/07/16 11:52:54;;;;;;;;;;;;;;;-144.99;50.81;52028.22;5071202;28;19924;-59
2021/07/16 11:55:22;;;;;;;;;;;;;;;-144.99;49.83;51983.41;5070782;28;19924;-59
2021/07/16 11:57:52;;;;;;;;;;;;;;;-144.99;50.54;52024.16;5070420;28;19971;-59
2021/07/16 12:00:19;;;;;;;;;;;;;;;-144.99;51.01;51999.69;5076974;28;19930;-59
2021/07/16 12:02:46;;;;;;;;;;;;;;;-144.99;51.06;52018.03;5077661;28;19937;-59
2021/07/16 12:05:12;;;;;;;;;;;;;;;-144.99;51.43;52028.22;5070788;28;20331;-59
2021/07/16 12:07:40;;;;;;;;;;;;;;;-144.99;51.45;52020.09;5070885;28;19931;-59
2021/07/16 12:10:10;;;;;;;;;;;;;;;-144.99;51.14;52022.13;5070237;28;20390;-60
2021/07/16 12:12:39;;;;;;;;;;;;;;;-144.99;50.81;52001.75;5073478;28;20397;-58
2021/07/16 12:15:06;;;;;;;;;;;;;;;-144.99;50.41;52024.16;5068627;28;20127;-59
2021/07/16 12:17:34;;;;;;;;;;;;;;;-144.99;50.92;52036.38;5068403;28;20477;-59
2021/07/16 12:20:02;;;;;;;;;;;;;;;-144.99;51.83;52032.31;5070095;28;19935;-59
2021/07/16 12:22:29;;;;;;;;;;;;;;;-144.99;51.65;52044.53;5058203;28;19932;-59
2021/07/16 12:24:56;;;;;;;;;;;;;;;-144.99;52.97;52056.78;5076100;28;20406;-59
2021/07/16 12:27:23;;;;;;;;;;;;;;;-144.99;52.66;52052.69;5057122;28;20440;-61
2021/07/16 12:29:58;;;;;;;;;;;;;;;-144.99;53.35;52042.50;5068997;28;20404;-60